Time;durP1;ratioP1;P1;durP2;ratioP2;P2;SDS_P1;SDS_P2;PMS_P1;PMS_P2;Temp;Humidity;BMP_temperature;BMP_pressure;BME280_temperature;BME280_humidity;BME280_pressure;Samples;Min_cycle;Max_cycle;Signal;HPM_P1;HPM_P2
2023/08/08 00:00:14;;;;;;;;;;;24.50;42.90;;;;;;5023674;28;44302;-86
2023/08/08 00:02:39;;;;;;;;;;;24.10;42.40;;;;;;5031488;28;42920;-84
2023/08/08 00:05:05;;;;;;;;;;;24.00;42.40;;;;;;5032627;28;42817;-84
2023/08/08 00:07:31;;;;;;;;;;;24.30;42.30;;;;;;5043251;28;43319;-83
2023/08/08 00:09:56;;;;;;;;;;;24.30;42.40;;;;;;5044750;28;43034;-83
2023/08/08 00:12:22;;;;;;;;;;;24.00;43.10;;;;;;5045532;28;42916;-84
2023/08/08 00:14:48;;;;;;;;;;;24.10;43.50;;;;;;5037774;28;44120;-83
2023/08/08 00:17:13;;;;;;;;;;;24.20;43.50;;;;;;5031465;28;42953;-83
2023/08/08 00:19:39;;;;;;;;;;;23.90;44.10;;;;;;5041356;28;43048;-83
2023/08/08 00:22:04;;;;;;;;;;;24.00;42.90;;;;;;5043869;28;43169;-83
2023/08/08 00:24:30;;;;;;;;;;;23.90;43.40;;;;;;5040697;28;44473;-83
2023/08/08 00:26:55;;;;;;;;;;;24.00;43.70;;;;;;5025126;28;42889;-83
2023/08/08 00:29:21;;;;;;;;;;;23.90;43.50;;;;;;5025729;28;43622;-83
2023/08/08 00:31:46;;;;;;;;;;;24.00;43.60;;;;;;5026206;28;43035;-83
2023/08/08 00:34:12;;;;;;;;;;;24.00;43.50;;;;;;5044666;28;43217;-86
2023/08/08 00:36:37;;;;;;;;;;;23.80;43.70;;;;;;5045041;28;43081;-83
2023/08/08 00:39:03;;;;;;;;;;;24.00;44.00;;;;;;5043957;28;42923;-83
2023/08/08 00:41:28;;;;;;;;;;;23.90;44.20;;;;;;5042606;28;42853;-83
2023/08/08 00:43:54;;;;;;;;;;;23.90;44.60;;;;;;5025202;28;43837;-84
2023/08/08 00:46:21;;;;;;;;;;;23.80;44.40;;;;;;5024918;28;42839;-85
2023/08/08 00:48:46;;;;;;;;;;;23.80;44.30;;;;;;5032529;28;42906;-83
2023/08/08 00:51:12;;;;;;;;;;;23.90;44.70;;;;;;5034240;28;43311;-86
2023/08/08 00:53:38;;;;;;;;;;;23.90;44.50;;;;;;5024249;28;43893;-83
2023/08/08 00:56:03;;;;;;;;;;;23.90;44.40;;;;;;5034480;28;42892;-83
2023/08/08 00:58:29;;;;;;;;;;;23.90;43.70;;;;;;5028366;28;43834;-83
2023/08/08 01:00:57;;;;;;;;;;;24.00;44.00;;;;;;5039649;28;42928;-87
2023/08/08 01:03:22;;;;;;;;;;;23.90;43.70;;;;;;5024393;28;42903;-83
2023/08/08 01:05:51;;;;;;;;;;;24.00;44.10;;;;;;5025020;28;42844;-84
2023/08/08 01:08:21;;;;;;;;;;;24.00;43.80;;;;;;5025833;28;42987;-83
2023/08/08 01:10:47;;;;;;;;;;;24.30;44.00;;;;;;5024923;28;42832;-84
2023/08/08 01:13:17;;;;;;;;;;;23.90;44.40;;;;;;5024517;28;42947;-84
2023/08/08 01:15:44;;;;;;;;;;;23.80;42.40;;;;;;5024480;28;42986;-84
2023/08/08 01:18:10;;;;;;;;;;;23.90;44.60;;;;;;5022984;28;44441;-83
2023/08/08 01:20:37;;;;;;;;;;;23.80;44.80;;;;;;5041467;28;42923;-83
2023/08/08 01:23:15;;;;;;;;;;;23.80;45.10;;;;;;5041000;28;44602;-83
2023/08/08 01:25:40;;;;;;;;;;;23.80;43.30;;;;;;5042581;28;42985;-83
2023/08/08 01:28:06;;;;;;;;;;;23.80;45.40;;;;;;5034798;28;43723;-84
2023/08/08 01:30:32;;;;;;;;;;;23.80;45.50;;;;;;5023906;28;43015;-83
2023/08/08 01:32:58;;;;;;;;;;;23.80;45.80;;;;;;5041092;28;43444;-83
2023/08/08 01:35:25;;;;;;;;;;;23.70;45.90;;;;;;5047270;28;43014;-83
2023/08/08 01:37:54;;;;;;;;;;;23.90;45.80;;;;;;5045443;28;43596;-84
2023/08/08 01:40:20;;;;;;;;;;;24.40;46.30;;;;;;5027743;28;43165;-84
2023/08/08 01:42:46;;;;;;;;;;;23.60;46.10;;;;;;5027764;28;43881;-83
2023/08/08 01:45:12;;;;;;;;;;;23.80;46.40;;;;;;5030720;28;43185;-83
2023/08/08 01:47:37;;;;;;;;;;;23.70;46.70;;;;;;5044209;28;44688;-83
2023/08/08 01:50:03;;;;;;;;;;;23.70;47.10;;;;;;5047414;28;42944;-84
2023/08/08 01:52:28;;;;;;;;;;;23.50;47.00;;;;;;5039548;28;43758;-83
2023/08/08 01:54:54;;;;;;;;;;;23.70;47.70;;;;;;5028574;28;42898;-84
2023/08/08 01:57:19;;;;;;;;;;;23.70;48.40;;;;;;5029274;28;43594;-83
2023/08/08 01:59:45;;;;;;;;;;;23.70;48.10;;;;;;5027611;28;42758;-83
2023/08/08 02:02:10;;;;;;;;;;;23.70;47.70;;;;;;5027658;28;42984;-84
2023/08/08 02:04:36;;;;;;;;;;;23.60;48.70;;;;;;5027314;28;42837;-84
2023/08/08 02:07:02;;;;;;;;;;;23.30;49.10;;;;;;5026666;28;44717;-83
2023/08/08 02:09:27;;;;;;;;;;;23.70;48.80;;;;;;5027268;28;42983;-83
2023/08/08 02:11:53;;;;;;;;;;;23.80;49.30;;;;;;5029307;28;43003;-84
2023/08/08 02:14:18;;;;;;;;;;;23.50;50.00;;;;;;5046846;28;42975;-83
2023/08/08 02:16:44;;;;;;;;;;;23.60;50.00;;;;;;5041396;28;44161;-83
2023/08/08 02:19:09;;;;;;;;;;;23.60;50.20;;;;;;5046710;28;42828;-83
2023/08/08 02:21:34;;;;;;;;;;;23.50;50.90;;;;;;5045785;28;42979;-88
2023/08/08 02:24:00;;;;;;;;;;;23.60;51.40;;;;;;5027135;28;42904;-84
2023/08/08 02:26:25;;;;;;;;;;;23.50;51.80;;;;;;5025817;28;44359;-83
2023/08/08 02:28:51;;;;;;;;;;;23.50;52.20;;;;;;5043898;28;42958;-83
2023/08/08 02:31:20;;;;;;;;;;;23.60;52.90;;;;;;5046565;28;43602;-83
2023/08/08 02:33:52;;;;;;;;;;;23.60;54.30;;;;;;5039714;28;42966;-85
2023/08/08 02:36:18;;;;;;;;;;;23.40;54.50;;;;;;5046819;28;42892;-87
2023/08/08 02:38:44;;;;;;;;;;;23.10;58.70;;;;;;5031145;28;42949;-83
2023/08/08 02:41:09;;;;;;;;;;;23.60;60.90;;;;;;5044699;28;45041;-84
2023/08/08 02:43:35;;;;;;;;;;;;;;;;;;5043190;28;42908;-83
2023/08/08 02:46:01;;;;;;;;;;;23.50;54.80;;;;;;5040026;28;43841;-84
2023/08/08 02:48:27;;;;;;;;;;;23.70;56.10;;;;;;5037458;28;42996;-83
2023/08/08 02:50:52;;;;;;;;;;;23.40;56.00;;;;;;5039708;28;43642;-83
2023/08/08 02:53:18;;;;;;;;;;;23.50;56.90;;;;;;5051239;28;42960;-83
2023/08/08 02:55:43;;;;;;;;;;;23.60;58.60;;;;;;5041454;28;43057;-83
2023/08/08 02:58:09;;;;;;;;;;;23.50;60.40;;;;;;5031678;28;43002;-83
2023/08/08 03:00:35;;;;;;;;;;;23.60;60.10;;;;;;5045967;28;42845;-83
2023/08/08 03:03:00;;;;;;;;;;;23.40;61.40;;;;;;5044999;28;43006;-83
2023/08/08 03:05:26;;;;;;;;;;;23.40;59.40;;;;;;5043295;28;43017;-83
2023/08/08 03:07:51;;;;;;;;;;;23.70;61.30;;;;;;5045726;28;42990;-86
2023/08/08 03:10:17;;;;;;;;;;;23.70;57.00;;;;;;5044097;28;43659;-86
2023/08/08 03:12:42;;;;;;;;;;;24.00;58.60;;;;;;5046928;28;42965;-87
2023/08/08 03:15:08;;;;;;;;;;;23.60;59.50;;;;;;5044517;28;43639;-86
2023/08/08 03:17:34;;;;;;;;;;;;;;;;;;5045977;28;42924;-87
2023/08/08 03:20:00;;;;;;;;;;;23.60;42.20;;;;;;5040678;28;42974;-86
2023/08/08 03:22:26;;;;;;;;;;;23.60;43.50;;;;;;5043832;28;42992;-86
2023/08/08 03:24:51;;;;;;;;;;;23.70;43.40;;;;;;5046266;28;43649;-83
2023/08/08 03:27:17;;;;;;;;;;;23.50;43.20;;;;;;5036657;28;42951;-84
2023/08/08 03:29:42;;;;;;;;;;;23.50;43.20;;;;;;5025916;28;42973;-83
2023/08/08 03:32:08;;;;;;;;;;;23.40;43.50;;;;;;5035099;28;44471;-83
2023/08/08 03:34:33;;;;;;;;;;;23.50;44.00;;;;;;5025668;28;43506;-85
2023/08/08 03:36:59;;;;;;;;;;;23.30;42.80;;;;;;5025425;28;43056;-83
2023/08/08 03:39:25;;;;;;;;;;;23.30;42.80;;;;;;5027443;28;42857;-88
2023/08/08 03:41:50;;;;;;;;;;;23.40;42.80;;;;;;5035945;28;43692;-83
2023/08/08 03:44:16;;;;;;;;;;;23.30;42.60;;;;;;5043413;28;43419;-88
2023/08/08 03:46:41;;;;;;;;;;;23.30;42.80;;;;;;5045373;28;42971;-83
2023/08/08 03:49:07;;;;;;;;;;;23.30;42.30;;;;;;5041715;28;43066;-83
2023/08/08 03:51:33;;;;;;;;;;;23.50;41.80;;;;;;5041131;28;43089;-82
2023/08/08 03:53:59;;;;;;;;;;;23.60;41.30;;;;;;5024327;28;42962;-83
2023/08/08 03:56:24;;;;;;;;;;;24.00;41.90;;;;;;5025653;28;43145;-86
2023/08/08 03:58:50;;;;;;;;;;;23.40;41.60;;;;;;5025577;28;42991;-87
2023/08/08 04:01:15;;;;;;;;;;;23.60;41.80;;;;;;5025045;28;43111;-83
2023/08/08 04:03:41;;;;;;;;;;;23.50;41.30;;;;;;5025047;28;43512;-84
2023/08/08 04:06:06;;;;;;;;;;;23.50;41.20;;;;;;5033407;28;42939;-85
2023/08/08 04:08:31;;;;;;;;;;;23.40;41.50;;;;;;5034767;28;42818;-83
2023/08/08 04:10:57;;;;;;;;;;;23.40;41.90;;;;;;5028794;28;42928;-84
2023/08/08 04:13:23;;;;;;;;;;;23.30;42.10;;;;;;5038629;28;43075;-83
2023/08/08 04:15:51;;;;;;;;;;;23.40;42.10;;;;;;5042457;28;43144;-85
2023/08/08 04:18:17;;;;;;;;;;;23.30;42.00;;;;;;5040871;28;43088;-83
2023/08/08 04:20:42;;;;;;;;;;;23.40;42.00;;;;;;5045064;28;42868;-83
2023/08/08 04:23:08;;;;;;;;;;;23.50;42.00;;;;;;5043661;28;43934;-83
2023/08/08 04:25:33;;;;;;;;;;;23.40;41.80;;;;;;5043490;28;43048;-83
2023/08/08 04:27:59;;;;;;;;;;;23.40;42.10;;;;;;5044057;28;43570;-85
2023/08/08 04:30:24;;;;;;;;;;;23.30;41.60;;;;;;5026003;28;43049;-84
2023/08/08 04:32:50;;;;;;;;;;;23.50;42.40;;;;;;5025269;28;42893;-84
2023/08/08 04:35:15;;;;;;;;;;;23.50;42.50;;;;;;5040937;28;43234;-88
2023/08/08 04:37:41;;;;;;;;;;;23.40;42.40;;;;;;5024571;28;43056;-87
2023/08/08 04:40:08;;;;;;;;;;;23.30;42.40;;;;;;5025052;28;42877;-87
2023/08/08 04:42:33;;;;;;;;;;;23.30;41.60;;;;;;5024498;28;43688;-85
2023/08/08 04:44:59;;;;;;;;;;;23.50;42.50;;;;;;5028114;28;43050;-86
2023/08/08 04:47:24;;;;;;;;;;;23.50;42.40;;;;;;5043765;28;43050;-84
2023/08/08 04:49:50;;;;;;;;;;;23.40;42.20;;;;;;5043634;28;42875;-85
2023/08/08 04:52:16;;;;;;;;;;;23.40;42.20;;;;;;5042148;28;42948;-86
2023/08/08 04:54:41;;;;;;;;;;;23.30;42.40;;;;;;5037762;28;42864;-84
2023/08/08 04:57:07;;;;;;;;;;;23.30;42.30;;;;;;5024386;28;42873;-84
2023/08/08 04:59:32;;;;;;;;;;;23.70;42.60;;;;;;5041348;28;42969;-83
2023/08/08 05:01:58;;;;;;;;;;;23.40;42.50;;;;;;5033446;28;42960;-82
2023/08/08 05:04:23;;;;;;;;;;;23.40;42.70;;;;;;5025390;28;42971;-84
2023/08/08 05:06:49;;;;;;;;;;;23.30;42.80;;;;;;5041741;28;42965;-83
2023/08/08 05:09:15;;;;;;;;;;;23.30;43.40;;;;;;5044258;28;42889;-86
2023/08/08 05:11:41;;;;;;;;;;;23.40;43.10;;;;;;5038921;28;43376;-83
2023/08/08 05:14:06;;;;;;;;;;;23.40;43.10;;;;;;5025361;28;43005;-88
2023/08/08 05:16:32;;;;;;;;;;;23.40;43.30;;;;;;5037903;28;43657;-87
2023/08/08 05:18:58;;;;;;;;;;;23.70;43.50;;;;;;5044223;28;43006;-86
2023/08/08 05:21:23;;;;;;;;;;;23.40;43.40;;;;;;5044378;28;43347;-83
2023/08/08 05:23:49;;;;;;;;;;;23.40;43.20;;;;;;5038991;28;43017;-86
2023/08/08 05:26:15;;;;;;;;;;;23.40;43.40;;;;;;5038735;28;43100;-87
2023/08/08 05:28:41;;;;;;;;;;;23.40;43.10;;;;;;5038052;28;43202;-87
2023/08/08 05:31:06;;;;;;;;;;;23.50;43.50;;;;;;5037642;28;43049;-86
2023/08/08 05:33:32;;;;;;;;;;;23.60;43.50;;;;;;5050818;28;42947;-85
2023/08/08 05:35:57;;;;;;;;;;;23.50;43.50;;;;;;5033182;28;45379;-87
2023/08/08 05:38:23;;;;;;;;;;;23.40;43.60;;;;;;5045518;28;43008;-85
2023/08/08 05:40:48;;;;;;;;;;;23.60;44.10;;;;;;5044654;28;42944;-88
2023/08/08 05:43:18;;;;;;;;;;;23.60;43.50;;;;;;5039984;28;43010;-86
2023/08/08 05:45:46;;;;;;;;;;;23.40;42.50;;;;;;5035117;28;44425;-83
2023/08/08 05:48:12;;;;;;;;;;;23.50;43.80;;;;;;5035346;28;43064;-85
2023/08/08 05:50:41;;;;;;;;;;;23.50;43.80;;;;;;5037789;28;44278;-83
2023/08/08 05:53:06;;;;;;;;;;;23.50;43.70;;;;;;5036523;28;42969;-86
2023/08/08 05:55:32;;;;;;;;;;;23.60;43.70;;;;;;5036395;28;43805;-85
2023/08/08 05:57:58;;;;;;;;;;;23.70;43.90;;;;;;5034070;28;42935;-85
2023/08/08 06:00:23;;;;;;;;;;;23.50;43.90;;;;;;5037536;28;42919;-82
2023/08/08 06:02:49;;;;;;;;;;;23.50;43.70;;;;;;5036459;28;43006;-91
2023/08/08 06:05:16;;;;;;;;;;;23.50;43.50;;;;;;5033906;28;43087;-92
2023/08/08 06:07:41;;;;;;;;;;;23.60;43.70;;;;;;5033514;28;43097;-89
2023/08/08 06:10:08;;;;;;;;;;;23.50;44.00;;;;;;5034693;28;43502;-88
2023/08/08 06:12:33;;;;;;;;;;;23.80;43.70;;;;;;5041604;28;42916;-85
2023/08/08 06:14:59;;;;;;;;;;;23.60;44.10;;;;;;5038234;28;43090;-85
2023/08/08 06:17:24;;;;;;;;;;;23.60;43.80;;;;;;5042287;28;42982;-88
2023/08/08 06:19:50;;;;;;;;;;;23.60;43.60;;;;;;5044621;28;43491;-86
2023/08/08 06:22:16;;;;;;;;;;;23.60;43.50;;;;;;5044774;28;43013;-82
2023/08/08 06:24:41;;;;;;;;;;;23.70;43.80;;;;;;5033801;28;42894;-82
2023/08/08 06:27:07;;;;;;;;;;;23.70;43.70;;;;;;5039867;28;42997;-89
2023/08/08 06:29:32;;;;;;;;;;;23.90;43.90;;;;;;5039690;28;43015;-88
2023/08/08 06:31:58;;;;;;;;;;;24.00;43.80;;;;;;5045934;28;43007;-90
2023/08/08 06:34:23;;;;;;;;;;;23.70;43.40;;;;;;5042104;28;42982;-86
2023/08/08 06:36:49;;;;;;;;;;;23.80;43.50;;;;;;5043532;28;43018;-85
2023/08/08 06:39:14;;;;;;;;;;;24.00;43.50;;;;;;5025822;28;43574;-92
2023/08/08 06:41:40;;;;;;;;;;;24.00;43.40;;;;;;5033159;28;42954;-90
2023/08/08 06:44:07;;;;;;;;;;;23.90;43.50;;;;;;5026770;28;43037;-91
2023/08/08 06:46:32;;;;;;;;;;;23.90;43.30;;;;;;5041729;28;42899;-92
2023/08/08 06:48:59;;;;;;;;;;;23.80;43.50;;;;;;5033779;28;43059;-89
2023/08/08 06:51:25;;;;;;;;;;;24.00;43.40;;;;;;5025162;28;42948;-86
2023/08/08 06:53:51;;;;;;;;;;;24.00;43.40;;;;;;5031445;28;44450;-83
2023/08/08 06:56:16;;;;;;;;;;;23.90;43.60;;;;;;5025965;28;43012;-84
2023/08/08 06:58:43;;;;;;;;;;;23.70;43.60;;;;;;5039671;28;43869;-81
2023/08/08 07:01:09;;;;;;;;;;;24.00;43.50;;;;;;5042290;28;42964;-89
2023/08/08 07:03:35;;;;;;;;;;;24.00;43.60;;;;;;5049063;28;43869;-91
2023/08/08 07:06:01;;;;;;;;;;;23.80;43.80;;;;;;5044494;28;43081;-83
2023/08/08 07:08:26;;;;;;;;;;;24.20;44.00;;;;;;5046899;28;42832;-81
2023/08/08 07:10:52;;;;;;;;;;;23.90;44.30;;;;;;5044802;28;43018;-84
2023/08/08 07:13:17;;;;;;;;;;;24.30;44.00;;;;;;5045866;28;42820;-84
2023/08/08 07:15:43;;;;;;;;;;;24.00;43.90;;;;;;5057475;28;42994;-81
2023/08/08 07:18:08;;;;;;;;;;;24.10;44.00;;;;;;5048364;28;43393;-83
2023/08/08 07:20:34;;;;;;;;;;;24.10;44.10;;;;;;5047234;28;42814;-81
2023/08/08 07:23:01;;;;;;;;;;;24.20;44.10;;;;;;5049396;28;43018;-90
2023/08/08 07:25:27;;;;;;;;;;;24.30;44.00;;;;;;5047493;28;43111;-83
2023/08/08 07:27:52;;;;;;;;;;;23.90;44.00;;;;;;5042442;28;42743;-85
2023/08/08 07:30:18;;;;;;;;;;;24.20;44.10;;;;;;5038705;28;42836;-92
2023/08/08 07:32:43;;;;;;;;;;;24.10;44.10;;;;;;5044315;28;43532;-82
2023/08/08 07:35:10;;;;;;;;;;;24.10;44.10;;;;;;5042102;28;42690;-81
2023/08/08 07:37:36;;;;;;;;;;;24.10;44.00;;;;;;5061957;28;44564;-87
2023/08/08 07:40:01;;;;;;;;;;;24.20;44.30;;;;;;5060834;28;43044;-82
2023/08/08 07:42:27;;;;;;;;;;;24.20;44.10;;;;;;5064736;28;42959;-84
2023/08/08 07:44:52;;;;;;;;;;;24.40;44.30;;;;;;5058811;28;42690;-82
2023/08/08 07:47:18;;;;;;;;;;;24.10;44.00;;;;;;5050536;28;42678;-82
2023/08/08 07:49:43;;;;;;;;;;;24.10;44.10;;;;;;5040860;28;42870;-81
2023/08/08 07:52:09;;;;;;;;;;;24.20;44.30;;;;;;5042825;28;43774;-81
2023/08/08 07:54:35;;;;;;;;;;;24.20;44.30;;;;;;5043979;28;43102;-84
2023/08/08 07:57:00;;;;;;;;;;;24.10;44.40;;;;;;5049739;28;43398;-86
2023/08/08 07:59:26;;;;;;;;;;;24.30;44.40;;;;;;5051369;28;42954;-88
2023/08/08 08:01:52;;;;;;;;;;;24.30;44.40;;;;;;5051375;28;43274;-87
2023/08/08 08:04:18;;;;;;;;;;;24.30;44.40;;;;;;5050619;28;42335;-94
2023/08/08 08:06:43;;;;;;;;;;;24.30;44.50;;;;;;5051336;28;42555;-94
2023/08/08 08:09:09;;;;;;;;;;;24.40;44.30;;;;;;5051555;28;42247;-96
2023/08/08 08:11:34;;;;;;;;;;;24.30;44.30;;;;;;5050424;28;43524;-92
2023/08/08 08:14:00;;;;;;;;;;;24.30;44.40;;;;;;5049673;28;42325;-92
2023/08/08 08:16:25;;;;;;;;;;;24.20;44.50;;;;;;5048622;28;42837;-80
2023/08/08 08:18:51;;;;;;;;;;;24.30;44.30;;;;;;5050361;28;43287;-92
2023/08/08 08:21:17;;;;;;;;;;;24.30;44.40;;;;;;5048281;28;43459;-82
2023/08/08 08:23:43;;;;;;;;;;;24.30;43.90;;;;;;5035071;28;42989;-81
2023/08/08 08:26:08;;;;;;;;;;;24.10;44.10;;;;;;5037533;28;42913;-81
2023/08/08 08:28:34;;;;;;;;;;;24.30;43.50;;;;;;5035776;28;42862;-82
2023/08/08 08:31:26;;;;;;;;;;;23.70;43.90;;;;;;5034010;28;42992;-95
2023/08/08 08:33:53;;;;;;;;;;;24.30;42.20;;;;;;5036824;28;43066;-81
2023/08/08 08:36:21;;;;;;;;;;;24.30;44.10;;;;;;5035952;28;43395;-84
2023/08/08 08:38:47;;;;;;;;;;;24.10;44.30;;;;;;5034207;28;42851;-81
2023/08/08 08:41:15;;;;;;;;;;;24.30;43.70;;;;;;5033015;28;42817;-81
2023/08/08 08:43:41;;;;;;;;;;;24.40;43.70;;;;;;5030261;28;42956;-81
2023/08/08 08:46:08;;;;;;;;;;;24.50;43.70;;;;;;5033889;28;42821;-83
2023/08/08 08:48:34;;;;;;;;;;;24.40;43.70;;;;;;5034829;28;42942;-83
2023/08/08 08:51:02;;;;;;;;;;;24.20;43.60;;;;;;5035955;28;43833;-82
2023/08/08 08:53:35;;;;;;;;;;;24.20;43.60;;;;;;5037195;28;42955;-81
2023/08/08 08:56:03;;;;;;;;;;;24.10;42.30;;;;;;5035593;28;44415;-82
2023/08/08 08:58:29;;;;;;;;;;;24.30;43.80;;;;;;5036003;28;43141;-82
2023/08/08 09:00:56;;;;;;;;;;;24.30;43.60;;;;;;5039126;28;43585;-86
2023/08/08 09:03:43;;;;;;;;;;;24.20;42.30;;;;;;5044217;28;42821;-82
2023/08/08 09:06:11;;;;;;;;;;;24.40;43.80;;;;;;5037318;28;43619;-82
2023/08/08 09:08:37;;;;;;;;;;;24.40;43.70;;;;;;5042906;28;42401;-82
2023/08/08 09:11:03;;;;;;;;;;;24.30;44.40;;;;;;5037333;28;42760;-81
2023/08/08 09:13:38;;;;;;;;;;;24.50;43.80;;;;;;5033512;28;42919;-82
2023/08/08 09:16:12;;;;;;;;;;;24.30;42.60;;;;;;5035733;28;43402;-84
2023/08/08 09:18:38;;;;;;;;;;;24.40;43.90;;;;;;5042250;28;42821;-81
2023/08/08 09:21:04;;;;;;;;;;;24.10;44.50;;;;;;5040737;28;43840;-89
2023/08/08 09:23:29;;;;;;;;;;;24.20;44.40;;;;;;5048391;28;42688;-87
2023/08/08 09:25:55;;;;;;;;;;;24.30;44.50;;;;;;5047948;28;42790;-95
2023/08/08 09:28:20;;;;;;;;;;;24.30;44.80;;;;;;5048912;28;42924;-88
2023/08/08 09:30:46;;;;;;;;;;;24.30;44.70;;;;;;5050088;28;43861;-87
2023/08/08 09:33:12;;;;;;;;;;;24.30;44.60;;;;;;5048234;28;42464;-83
2023/08/08 09:35:40;;;;;;;;;;;24.30;44.60;;;;;;5043191;28;43387;-94
2023/08/08 09:38:06;;;;;;;;;;;24.50;42.90;;;;;;5048413;28;42326;-86
2023/08/08 09:40:32;;;;;;;;;;;24.40;44.60;;;;;;5048259;28;43503;-91
2023/08/08 09:43:00;;;;;;;;;;;24.40;44.60;;;;;;5049069;28;42369;-85
2023/08/08 09:45:26;;;;;;;;;;;24.50;43.30;;;;;;5048991;28;43506;-89
2023/08/08 09:47:54;;;;;;;;;;;24.50;44.70;;;;;;5048764;28;42798;-86
2023/08/08 09:50:20;;;;;;;;;;;24.40;43.50;;;;;;5046371;28;45198;-91
2023/08/08 09:52:46;;;;;;;;;;;24.50;44.90;;;;;;5069782;22;42429;-87
2023/08/08 09:55:12;;;;;;;;;;;24.40;44.60;;;;;;5073685;28;42545;-92
2023/08/08 09:57:38;;;;;;;;;;;23.60;44.10;;;;;;5073188;28;42212;-81
2023/08/08 10:00:05;;;;;;;;;;;24.30;44.70;;;;;;5073825;28;43659;-87
2023/08/08 10:02:32;;;;;;;;;;;24.30;43.90;;;;;;5074236;28;42225;-83
2023/08/08 10:04:58;;;;;;;;;;;24.50;45.10;;;;;;5073565;28;42761;-87
2023/08/08 10:07:23;;;;;;;;;;;24.40;44.70;;;;;;5081145;22;42621;-82
2023/08/08 10:09:49;;;;;;;;;;;24.60;45.00;;;;;;5073508;28;42502;-85
2023/08/08 10:12:15;;;;;;;;;;;24.40;44.80;;;;;;5073146;28;43266;-84
2023/08/08 10:14:41;;;;;;;;;;;24.30;44.80;;;;;;5073259;28;43682;-82
2023/08/08 10:17:07;;;;;;;;;;;24.70;45.00;;;;;;5072203;28;42284;-84
2023/08/08 10:19:33;;;;;;;;;;;24.40;45.00;;;;;;5074155;28;43680;-88
2023/08/08 10:22:00;;;;;;;;;;;24.30;45.10;;;;;;5074192;28;42312;-87
2023/08/08 10:24:25;;;;;;;;;;;24.40;45.10;;;;;;5074754;28;42713;-83
2023/08/08 10:26:53;;;;;;;;;;;24.40;45.20;;;;;;5074700;28;42295;-84
2023/08/08 10:29:19;;;;;;;;;;;24.40;45.10;;;;;;5074412;28;42448;-94
2023/08/08 10:31:51;;;;;;;;;;;24.60;45.20;;;;;;5073525;28;42321;-90
2023/08/08 10:34:20;;;;;;;;;;;24.40;45.30;;;;;;5072719;28;43065;-92
2023/08/08 10:36:49;;;;;;;;;;;24.50;45.30;;;;;;5073291;28;42357;-92
2023/08/08 10:39:17;;;;;;;;;;;24.60;43.60;;;;;;5071276;28;44316;-89
2023/08/08 10:41:46;;;;;;;;;;;24.30;45.20;;;;;;5073138;28;42248;-85
2023/08/08 10:44:12;;;;;;;;;;;24.50;43.60;;;;;;5072322;28;42902;-86
2023/08/08 10:46:40;;;;;;;;;;;24.50;45.50;;;;;;5068737;28;43010;-95
2023/08/08 10:49:05;;;;;;;;;;;24.50;45.50;;;;;;5072573;28;42377;-84
2023/08/08 10:51:46;;;;;;;;;;;24.70;45.70;;;;;;5068731;28;42900;-84
2023/08/08 10:54:38;;;;;;;;;;;24.60;43.80;;;;;;5049934;28;45523;-83
2023/08/08 10:57:04;;;;;;;;;;;24.20;43.60;;;;;;5070071;28;42258;-83
2023/08/08 10:59:37;;;;;;;;;;;24.40;45.60;;;;;;5072519;28;44069;-83
2023/08/08 11:02:03;;;;;;;;;;;24.60;43.90;;;;;;5072451;28;43011;-84
2023/08/08 11:04:30;;;;;;;;;;;24.90;45.90;;;;;;5071633;28;43335;-90
2023/08/08 11:06:56;;;;;;;;;;;24.90;45.90;;;;;;5062079;28;43087;-86
2023/08/08 11:09:56;;;;;;;;;;;24.60;45.30;;;;;;5065448;28;42865;-86
2023/08/08 11:12:26;;;;;;;;;;;24.50;45.80;;;;;;5063155;28;42775;-82
2023/08/08 11:15:30;;;;;;;;;;;24.60;45.40;;;;;;5064140;28;43581;-89
2023/08/08 11:17:56;;;;;;;;;;;24.50;45.10;;;;;;5065270;28;42856;-85
2023/08/08 11:20:28;;;;;;;;;;;24.60;46.00;;;;;;5057573;28;43066;-88
2023/08/08 11:22:55;;;;;;;;;;;24.60;44.20;;;;;;5034643;28;43380;-90
2023/08/08 11:25:25;;;;;;;;;;;24.60;45.50;;;;;;5038557;28;45265;-91
2023/08/08 11:28:14;;;;;;;;;;;24.60;45.50;;;;;;5059755;28;43075;-93
2023/08/08 11:33:59;;;;;;;;;;;24.50;45.40;;;;;;5026217;28;43289;-92
2023/08/08 11:36:44;;;;;;;;;;;24.60;44.10;;;;;;5015100;28;45011;-90
2023/08/08 11:39:12;;;;;;;;;;;24.70;44.00;;;;;;5037050;28;42938;-89
2023/08/08 11:41:38;;;;;;;;;;;24.70;44.80;;;;;;5040939;28;43069;-89
2023/08/08 11:44:04;;;;;;;;;;;24.60;46.80;;;;;;5037543;28;43057;-89
2023/08/08 11:46:51;;;;;;;;;;;24.60;47.40;;;;;;5036822;28;42969;-90
2023/08/08 11:49:17;;;;;;;;;;;22.90;45.70;;;;;;5036431;28;42954;-90
2023/08/08 11:51:44;;;;;;;;;;;24.60;47.90;;;;;;5030149;28;43070;-90
2023/08/08 11:54:09;;;;;;;;;;;24.60;48.30;;;;;;5025704;28;43083;-90
2023/08/08 11:56:36;;;;;;;;;;;24.70;48.60;;;;;;5025546;28;42990;-90
2023/08/08 11:59:02;;;;;;;;;;;24.70;48.70;;;;;;5024219;28;42929;-90
2023/08/08 12:02:04;;;;;;;;;;;24.50;48.20;;;;;;5025714;28;43643;-91
2023/08/08 12:04:57;;;;;;;;;;;25.00;47.20;;;;;;5143050;22;42948;-90
2023/08/08 12:07:23;;;;;;;;;;;24.70;46.50;;;;;;5107177;27;43558;-90
2023/08/08 12:09:58;;;;;;;;;;;24.70;48.30;;;;;;5107612;27;42750;-90
2023/08/08 12:12:30;;;;;;;;;;;24.70;46.80;;;;;;5103393;27;44835;-89
2023/08/08 12:14:56;;;;;;;;;;;24.70;48.70;;;;;;5125098;27;43056;-90
2023/08/08 12:17:22;;;;;;;;;;;26.60;49.80;;;;;;5106135;27;44428;-90
2023/08/08 12:19:48;;;;;;;;;;;24.60;49.10;;;;;;5107273;27;43924;-90
2023/08/08 12:22:23;;;;;;;;;;;24.00;48.80;;;;;;5103610;27;45055;-89
2023/08/08 12:24:50;;;;;;;;;;;24.70;47.50;;;;;;5104520;27;42813;-87
2023/08/08 12:27:16;;;;;;;;;;;24.60;49.20;;;;;;5104372;27;42992;-88
2023/08/08 12:29:44;;;;;;;;;;;24.60;47.80;;;;;;5084857;27;60147;-87
2023/08/08 12:32:14;;;;;;;;;;;24.70;51.70;;;;;;5097229;27;45399;-88
2023/08/08 12:34:47;;;;;;;;;;;24.80;52.40;;;;;;5125073;27;42984;-89
2023/08/08 12:37:13;;;;;;;;;;;24.60;51.60;;;;;;5103813;27;45710;-88
2023/08/08 12:39:38;;;;;;;;;;;24.60;49.50;;;;;;5103521;27;43101;-88
2023/08/08 12:42:07;;;;;;;;;;;24.70;51.50;;;;;;5126354;27;42880;-88
2023/08/08 12:44:35;;;;;;;;;;;24.70;48.40;;;;;;5125751;27;42955;-89
2023/08/08 12:47:01;;;;;;;;;;;24.80;46.70;;;;;;5107098;27;44446;-89
2023/08/08 12:49:26;;;;;;;;;;;24.70;48.40;;;;;;5106109;27;42995;-89
2023/08/08 12:52:00;;;;;;;;;;;24.80;48.60;;;;;;5125472;27;42967;-88
2023/08/08 12:54:26;;;;;;;;;;;24.70;47.00;;;;;;5107227;27;43143;-89
2023/08/08 12:56:52;;;;;;;;;;;24.70;48.60;;;;;;5125080;27;43696;-88
2023/08/08 12:59:17;;;;;;;;;;;24.60;48.90;;;;;;5106811;27;43116;-88
2023/08/08 13:01:43;;;;;;;;;;;24.70;49.70;;;;;;5105992;27;44630;-88
2023/08/08 13:04:08;;;;;;;;;;;24.80;50.30;;;;;;5105600;27;43298;-89
2023/08/08 13:06:34;;;;;;;;;;;24.80;55.30;;;;;;5105416;27;44286;-87
2023/08/08 13:09:00;;;;;;;;;;;24.80;49.50;;;;;;5106109;27;43078;-88
2023/08/08 13:11:26;;;;;;;;;;;24.60;49.60;;;;;;5125504;27;42935;-89
2023/08/08 13:14:01;;;;;;;;;;;24.80;50.10;;;;;;5107345;27;42830;-89
2023/08/08 13:16:26;;;;;;;;;;;24.70;48.60;;;;;;5125143;27;42857;-88
2023/08/08 13:18:52;;;;;;;;;;;25.00;54.00;;;;;;5125545;27;42968;-88
2023/08/08 13:21:17;;;;;;;;;;;24.70;49.30;;;;;;5105944;27;43910;-88
2023/08/08 13:23:43;;;;;;;;;;;24.80;49.60;;;;;;5125269;27;42986;-88
2023/08/08 13:26:09;;;;;;;;;;;24.80;51.90;;;;;;5125470;27;43329;-88
2023/08/08 13:28:34;;;;;;;;;;;24.80;49.90;;;;;;5109437;27;43148;-89
2023/08/08 13:31:00;;;;;;;;;;;24.70;53.00;;;;;;5108398;27;44664;-88
2023/08/08 13:33:26;;;;;;;;;;;24.70;49.90;;;;;;5108385;27;43084;-88
2023/08/08 13:35:52;;;;;;;;;;;24.80;49.90;;;;;;5127943;27;43129;-88
2023/08/08 13:38:24;;;;;;;;;;;24.70;50.90;;;;;;5108228;27;43132;-89
2023/08/08 13:40:49;;;;;;;;;;;25.00;50.00;;;;;;5122533;27;42941;-90
2023/08/08 13:43:15;;;;;;;;;;;24.70;53.40;;;;;;5105539;27;43086;-88
2023/08/08 13:45:40;;;;;;;;;;;24.90;49.20;;;;;;5125525;27;43264;-89
2023/08/08 13:48:06;;;;;;;;;;;24.70;49.10;;;;;;5125744;27;42870;-89
2023/08/08 13:50:32;;;;;;;;;;;24.80;49.20;;;;;;5128079;27;43536;-89
2023/08/08 13:56:10;;;;;;;;;;;24.90;48.80;;;;;;5084351;28;43033;-89
2023/08/08 13:58:42;;;;;;;;;;;24.80;50.10;;;;;;5085052;28;43097;-89
2023/08/08 14:01:07;;;;;;;;;;;25.10;50.10;;;;;;5084208;28;43837;-89
2023/08/08 14:03:33;;;;;;;;;;;24.80;49.90;;;;;;5084829;28;43207;-89
2023/08/08 14:06:06;;;;;;;;;;;24.80;49.20;;;;;;5067151;28;44524;-89
2023/08/08 14:08:31;;;;;;;;;;;24.80;47.40;;;;;;5084714;28;43101;-89
2023/08/08 14:11:18;;;;;;;;;;;24.70;50.10;;;;;;5067162;28;44499;-89
2023/08/08 14:13:44;;;;;;;;;;;24.60;48.40;;;;;;5085488;28;43239;-90
2023/08/08 14:16:42;;;;;;;;;;;24.90;49.60;;;;;;5083827;28;44754;-89
2023/08/08 14:19:08;;;;;;;;;;;24.70;48.00;;;;;;5068231;28;42997;-89
2023/08/08 14:21:33;;;;;;;;;;;24.90;51.40;;;;;;5084281;28;42995;-89
2023/08/08 14:23:59;;;;;;;;;;;24.70;52.50;;;;;;5066673;28;43103;-89